createdAt,value
2023-02-25T00:01:24.419Z,6.40
2023-02-25T00:03:55.915Z,6.20
2023-02-25T00:06:24.979Z,6.00
2023-02-25T00:08:54.501Z,6.10
2023-02-25T00:11:23.934Z,6.20
2023-02-25T00:13:51.071Z,6.10
2023-02-25T00:16:18.756Z,6.10
2023-02-25T00:18:46.683Z,6.10
2023-02-25T00:21:16.107Z,5.70
2023-02-25T00:23:48.346Z,5.70
2023-02-25T00:26:16.919Z,5.60
2023-02-25T00:28:44.658Z,5.50
2023-02-25T00:31:15.659Z,5.60
2023-02-25T00:33:42.903Z,5.40
2023-02-25T00:36:13.671Z,5.30
2023-02-25T00:38:40.897Z,5.60
2023-02-25T00:41:11.781Z,5.30
2023-02-25T00:43:44.543Z,5.40
2023-02-25T00:46:11.896Z,5.40
2023-02-25T00:48:39.645Z,5.10
2023-02-25T00:51:18.015Z,5.20
2023-02-25T00:53:45.245Z,5.40
2023-02-25T00:56:15.743Z,5.40
2023-02-25T00:58:47.725Z,5.40
2023-02-25T01:01:27.366Z,5.10
2023-02-25T01:03:57.387Z,5.10
2023-02-25T01:06:26.056Z,5.00
2023-02-25T01:08:53.404Z,4.90
2023-02-25T01:11:29.215Z,5.10
2023-02-25T01:13:57.901Z,5.20
2023-02-25T01:16:27.574Z,5.20
2023-02-25T01:18:56.682Z,5.70
2023-02-25T01:21:27.721Z,5.50
2023-02-25T01:24:22.887Z,5.50
2023-02-25T01:26:54.331Z,5.70
2023-02-25T01:29:23.866Z,6.10
2023-02-25T01:31:56.173Z,5.70
2023-02-25T01:34:23.626Z,5.70
2023-02-25T01:36:50.734Z,5.60
2023-02-25T01:39:19.715Z,5.70
2023-02-25T01:41:48.806Z,6.20
2023-02-25T01:44:20.932Z,5.60
2023-02-25T01:46:50.279Z,5.40
2023-02-25T01:49:30.046Z,5.30
2023-02-25T01:52:20.290Z,5.40
2023-02-25T01:54:51.248Z,5.80
2023-02-25T01:57:18.770Z,5.50
2023-02-25T01:59:48.211Z,5.90
2023-02-25T02:02:19.108Z,5.90
2023-02-25T02:04:50.234Z,5.70
2023-02-25T02:07:17.933Z,5.90
2023-02-25T02:09:57.203Z,5.70
2023-02-25T02:12:31.507Z,6.10
2023-02-25T02:15:01.047Z,5.90
2023-02-25T02:18:08.283Z,5.90
2023-02-25T02:20:53.431Z,5.80
2023-02-25T02:23:26.294Z,5.60
2023-02-25T02:26:06.743Z,5.50
2023-02-25T02:28:55.369Z,5.70
2023-02-25T02:31:34.249Z,5.80
2023-02-25T02:34:16.837Z,5.70
2023-02-25T02:37:07.977Z,5.50
2023-02-25T02:39:51.477Z,5.30
2023-02-25T02:42:37.486Z,5.10
2023-02-25T02:45:04.189Z,5.30
2023-02-25T02:47:49.390Z,5.20
2023-02-25T02:50:30.874Z,5.20
2023-02-25T02:53:03.198Z,5.30
2023-02-25T02:55:37.689Z,5.60
2023-02-25T02:58:11.553Z,5.70
2023-02-25T03:00:44.837Z,5.20
2023-02-25T03:03:16.737Z,5.30
2023-02-25T03:05:48.966Z,5.60
2023-02-25T03:08:25.674Z,5.50
2023-02-25T03:10:52.605Z,5.60
2023-02-25T03:13:19.573Z,6.20
2023-02-25T03:15:48.031Z,5.50
2023-02-25T03:18:43.291Z,5.40
2023-02-25T03:21:19.980Z,5.50
2023-02-25T03:23:48.732Z,5.60
2023-02-25T03:26:30.107Z,5.50
2023-02-25T03:28:57.171Z,5.40
2023-02-25T03:31:37.831Z,5.40
2023-02-25T03:34:17.633Z,5.40
2023-02-25T03:36:49.449Z,7.20
2023-02-25T03:39:20.457Z,5.70
2023-02-25T03:41:52.227Z,5.60
2023-02-25T03:44:30.925Z,5.60
2023-02-25T03:46:59.692Z,5.30
2023-02-25T03:49:33.191Z,5.80
2023-02-25T03:52:06.171Z,5.10
2023-02-25T03:54:32.944Z,5.20
2023-02-25T03:56:59.736Z,5.10
2023-02-25T03:59:27.997Z,5.00
2023-02-25T04:01:56.540Z,5.20
2023-02-25T04:04:23.401Z,5.20
2023-02-25T04:06:50.170Z,5.30
2023-02-25T04:09:16.929Z,6.10
2023-02-25T04:11:43.644Z,5.40
2023-02-25T04:14:10.403Z,5.00
2023-02-25T04:16:37.212Z,5.10
2023-02-25T04:19:03.948Z,5.40
2023-02-25T04:21:36.300Z,5.20
2023-02-25T04:24:06.786Z,5.00
2023-02-25T04:26:34.737Z,5.20
2023-02-25T04:29:01.580Z,5.80
2023-02-25T04:31:28.483Z,5.20
2023-02-25T04:33:58.014Z,5.30
2023-02-25T04:36:35.838Z,5.70
2023-02-25T04:39:05.213Z,5.40
2023-02-25T04:41:35.355Z,5.40
2023-02-25T04:44:04.500Z,5.40
2023-02-25T04:46:33.089Z,5.40
2023-02-25T04:49:00.424Z,5.60
2023-02-25T04:51:29.819Z,5.10
2023-02-25T04:53:56.563Z,5.20
2023-02-25T04:56:23.637Z,5.10
2023-02-25T04:58:50.553Z,5.10
2023-02-25T05:01:17.276Z,5.10
2023-02-25T05:03:44.017Z,5.20
2023-02-25T05:06:11.167Z,5.60
2023-02-25T05:08:38.355Z,5.50
2023-02-25T05:11:05.419Z,5.50
2023-02-25T05:13:32.169Z,5.50
2023-02-25T05:16:11.183Z,5.50
2023-02-25T05:18:39.578Z,5.30
2023-02-25T05:21:14.446Z,5.20
2023-02-25T05:23:42.297Z,5.20
2023-02-25T05:26:10.185Z,5.60
2023-02-25T05:28:37.775Z,5.40
2023-02-25T05:31:09.871Z,5.50
2023-02-25T05:33:37.780Z,5.80
2023-02-25T05:36:10.257Z,6.40
2023-02-25T05:38:37.160Z,5.50
2023-02-25T05:41:06.012Z,5.80
2023-02-25T05:43:33.543Z,5.80
2023-02-25T05:46:03.367Z,6.00
2023-02-25T05:48:31.511Z,6.00
2023-02-25T05:51:07.099Z,6.00
2023-02-25T05:53:34.103Z,5.70
2023-02-25T05:56:08.488Z,5.70
2023-02-25T05:58:35.721Z,5.50
2023-02-25T06:01:13.670Z,5.70
2023-02-25T06:03:41.960Z,5.70
2023-02-25T06:06:10.507Z,6.30
2023-02-25T06:08:38.854Z,5.60
2023-02-25T06:11:09.252Z,5.70
2023-02-25T06:13:36.346Z,5.60
2023-02-25T06:16:05.095Z,5.50
2023-02-25T06:18:36.732Z,5.50
2023-02-25T06:21:08.035Z,5.50
2023-02-25T06:23:36.639Z,5.40
2023-02-25T06:26:05.111Z,5.70
2023-02-25T06:28:32.064Z,5.50
2023-02-25T06:30:59.331Z,5.70
2023-02-25T06:33:26.233Z,5.60
2023-02-25T06:35:55.970Z,4.20
2023-02-25T06:38:22.986Z,5.90
2023-02-25T06:40:50.952Z,5.20
2023-02-25T06:43:17.997Z,5.20
2023-02-25T06:45:45.290Z,5.40
2023-02-25T06:48:12.077Z,5.50
2023-02-25T06:50:40.196Z,5.30
2023-02-25T06:53:08.873Z,5.20
2023-02-25T06:55:38.262Z,5.30
2023-02-25T06:58:05.343Z,5.30
2023-02-25T07:00:33.033Z,4.10
2023-02-25T07:03:02.969Z,5.30
2023-02-25T07:05:29.850Z,5.50
2023-02-25T07:07:56.722Z,5.50
2023-02-25T07:10:23.459Z,5.40
2023-02-25T07:12:51.547Z,5.30
2023-02-25T07:15:18.530Z,5.20
2023-02-25T07:17:45.314Z,5.50
2023-02-25T07:20:12.500Z,6.10
2023-02-25T07:22:39.439Z,5.40
2023-02-25T07:25:08.035Z,5.60
2023-02-25T07:27:36.173Z,5.50
2023-02-25T07:30:03.534Z,5.40
2023-02-25T07:32:30.487Z,5.30
2023-02-25T07:34:57.313Z,5.40
2023-02-25T07:37:25.753Z,5.50
2023-02-25T07:39:52.603Z,5.50
2023-02-25T07:42:19.371Z,5.30
2023-02-25T07:44:47.551Z,5.30
2023-02-25T07:47:14.388Z,5.70
2023-02-25T07:49:41.259Z,5.60
2023-02-25T07:52:08.369Z,5.60
2023-02-25T07:54:35.116Z,5.90
2023-02-25T07:57:01.897Z,5.20
2023-02-25T07:59:28.933Z,4.80
2023-02-25T08:01:57.760Z,5.20
2023-02-25T08:04:24.680Z,5.10
2023-02-25T08:06:51.698Z,5.40
2023-02-25T08:09:18.621Z,5.10
2023-02-25T08:11:45.463Z,5.00
2023-02-25T08:14:12.565Z,5.10
2023-02-25T08:16:39.797Z,5.10
2023-02-25T08:19:06.725Z,5.20
2023-02-25T08:21:33.846Z,5.20
2023-02-25T08:24:00.955Z,5.20
2023-02-25T08:26:27.938Z,5.40
2023-02-25T08:28:56.353Z,5.70
2023-02-25T08:31:23.583Z,5.60
2023-02-25T08:33:52.845Z,5.70
2023-02-25T08:36:23.036Z,5.60
2023-02-25T08:38:50.910Z,5.50
2023-02-25T08:41:19.876Z,5.50
2023-02-25T08:43:51.366Z,5.50
2023-02-25T08:46:20.885Z,5.90
2023-02-25T08:48:52.350Z,6.00
2023-02-25T08:51:21.049Z,5.90
2023-02-25T08:53:48.192Z,6.10
2023-02-25T08:56:16.597Z,6.10
2023-02-25T08:58:44.130Z,5.90
2023-02-25T09:01:14.600Z,7.70
2023-02-25T09:03:51.272Z,5.80
2023-02-25T09:06:19.780Z,6.30
2023-02-25T09:08:46.658Z,6.40
2023-02-25T09:11:13.750Z,6.20
2023-02-25T09:13:43.224Z,7.00
2023-02-25T09:16:10.137Z,6.10
2023-02-25T09:18:37.025Z,6.00
2023-02-25T09:21:04.009Z,6.00
2023-02-25T09:23:30.779Z,6.20
2023-02-25T09:26:01.531Z,6.20
2023-02-25T09:28:28.617Z,6.60
2023-02-25T09:30:57.199Z,6.10
2023-02-25T09:33:25.267Z,5.90
2023-02-25T09:35:52.896Z,6.50
2023-02-25T09:38:21.205Z,6.00
2023-02-25T09:40:50.303Z,6.10
2023-02-25T09:43:23.788Z,6.30
2023-02-25T09:45:53.942Z,6.20
2023-02-25T09:48:30.498Z,6.20
2023-02-25T09:51:18.397Z,5.90
2023-02-25T09:53:56.420Z,6.10
2023-02-25T09:56:26.850Z,6.20
2023-02-25T09:58:59.781Z,6.40
2023-02-25T10:01:42.355Z,6.40
2023-02-25T10:04:14.692Z,6.10
2023-02-25T10:06:48.670Z,6.50
2023-02-25T10:09:48.112Z,6.60
2023-02-25T10:12:39.368Z,6.40
2023-02-25T10:15:33.123Z,6.40
2023-02-25T10:18:26.428Z,6.50
2023-02-25T10:21:11.537Z,6.30
2023-02-25T10:23:40.974Z,6.40
2023-02-25T10:26:21.744Z,6.40
2023-02-25T10:28:55.108Z,6.40
2023-02-25T10:31:23.617Z,6.40
2023-02-25T10:33:53.728Z,6.50
2023-02-25T10:36:30.531Z,6.60
2023-02-25T10:38:57.782Z,7.00
2023-02-25T10:41:28.823Z,7.10
2023-02-25T10:43:56.434Z,7.20
2023-02-25T10:46:29.716Z,7.00
2023-02-25T10:49:16.329Z,6.90
2023-02-25T10:52:03.583Z,7.20
2023-02-25T10:54:44.408Z,7.20
2023-02-25T10:57:35.144Z,7.20
2023-02-25T11:00:07.461Z,7.10
2023-02-25T11:02:41.375Z,7.20
2023-02-25T11:05:38.502Z,7.10
2023-02-25T11:08:24.576Z,7.20
2023-02-25T11:11:18.215Z,7.10
2023-02-25T11:13:53.125Z,7.10
2023-02-25T11:16:20.249Z,7.40
2023-02-25T11:18:52.892Z,7.40
2023-02-25T11:21:30.162Z,7.50
2023-02-25T11:24:02.251Z,7.70
2023-02-25T11:26:35.681Z,7.70
2023-02-25T11:29:08.940Z,7.60
2023-02-25T11:31:40.724Z,7.80
2023-02-25T11:34:22.570Z,8.10
2023-02-25T11:36:51.145Z,8.30
2023-02-25T11:39:21.951Z,8.30
2023-02-25T11:41:57.227Z,8.20
2023-02-25T11:44:51.978Z,8.40
2023-02-25T11:47:27.541Z,8.50
2023-02-25T11:50:07.365Z,8.30
2023-02-25T11:53:04.637Z,8.40
2023-02-25T11:55:56.085Z,8.30
2023-02-25T11:58:51.940Z,8.20
2023-02-25T12:01:39.513Z,8.40
2023-02-25T12:04:21.035Z,8.60
2023-02-25T12:06:56.707Z,8.70
2023-02-25T12:09:39.172Z,8.30
2023-02-25T12:12:33.501Z,8.20
2023-02-25T12:15:34.831Z,8.00
2023-02-25T12:18:22.779Z,8.50
2023-02-25T12:21:04.342Z,9.00
2023-02-25T12:24:13.024Z,9.20
2023-02-25T12:27:09.825Z,9.10
2023-02-25T12:29:59.558Z,8.90
2023-02-25T12:32:27.481Z,8.50
2023-02-25T12:35:27.216Z,8.40
2023-02-25T12:38:14.217Z,8.50
2023-02-25T12:40:59.309Z,8.60
2023-02-25T12:43:47.570Z,8.30
2023-02-25T12:46:26.453Z,8.60
2023-02-25T12:49:11.531Z,8.00
2023-02-25T12:51:52.962Z,7.60
2023-02-25T12:54:26.927Z,7.60
2023-02-25T12:57:33.086Z,7.30
2023-02-25T13:00:31.276Z,7.30
2023-02-25T13:03:25.869Z,7.30
2023-02-25T13:06:03.447Z,7.30
2023-02-25T13:08:45.264Z,7.70
2023-02-25T13:12:09.429Z,7.50
2023-02-25T13:14:47.817Z,7.30
2023-02-25T13:17:27.854Z,7.60
2023-02-25T13:20:31.635Z,7.90
2023-02-25T13:23:01.428Z,8.10
2023-02-25T13:25:31.220Z,8.40
2023-02-25T13:28:42.050Z,9.10
2023-02-25T13:31:46.367Z,10.40
2023-02-25T13:34:34.819Z,11.00
2023-02-25T13:37:17.772Z,10.80
2023-02-25T13:39:50.351Z,9.90
2023-02-25T13:42:41.930Z,9.50
2023-02-25T13:45:59.450Z,8.50
2023-02-25T13:48:57.200Z,7.30
2023-02-25T13:51:42.858Z,6.90
2023-02-25T13:54:52.022Z,6.70
2023-02-25T13:57:40.594Z,6.80
2023-02-25T14:00:35.484Z,6.90
2023-02-25T14:03:21.293Z,7.20
2023-02-25T14:06:12.709Z,6.90
2023-02-25T14:09:12.965Z,6.90
2023-02-25T14:12:12.551Z,7.80
2023-02-25T14:15:04.652Z,9.00
2023-02-25T14:18:27.950Z,10.20
2023-02-25T14:21:13.818Z,11.30
2023-02-25T14:24:00.635Z,12.40
2023-02-25T14:26:45.853Z,12.50
2023-02-25T14:29:36.729Z,12.20
2023-02-25T14:32:41.387Z,11.40
2023-02-25T14:35:17.180Z,10.00
2023-02-25T14:38:02.123Z,9.10
2023-02-25T14:40:31.937Z,8.50
2023-02-25T14:43:17.664Z,9.30
2023-02-25T14:46:09.127Z,10.50
2023-02-25T14:48:56.914Z,11.00
2023-02-25T14:51:24.288Z,11.00
2023-02-25T14:53:59.266Z,10.00
2023-02-25T14:56:51.383Z,10.20
2023-02-25T14:59:37.332Z,10.30
2023-02-25T15:02:30.873Z,10.70
2023-02-25T15:05:17.362Z,10.70
2023-02-25T15:07:55.116Z,10.10
2023-02-25T15:10:36.871Z,9.80
2023-02-25T15:13:35.963Z,9.50
2023-02-25T15:16:22.017Z,10.20
2023-02-25T15:18:54.789Z,10.70
2023-02-25T15:21:41.457Z,10.60
2023-02-25T15:24:53.449Z,10.70
2023-02-25T15:27:35.633Z,10.20
2023-02-25T15:30:14.041Z,9.80
2023-02-25T15:33:00.221Z,10.80
2023-02-25T15:35:36.364Z,12.00
2023-02-25T15:38:08.289Z,11.20
2023-02-25T15:40:35.000Z,10.10
2023-02-25T15:43:14.188Z,9.50
2023-02-25T15:45:49.480Z,9.00
2023-02-25T15:48:19.315Z,9.00
2023-02-25T15:50:49.220Z,9.50
2023-02-25T15:53:23.394Z,9.20
2023-02-25T15:56:10.468Z,9.40
2023-02-25T15:58:56.433Z,9.90
2023-02-25T16:01:29.196Z,10.50
2023-02-25T16:03:56.370Z,10.60
2023-02-25T16:06:39.015Z,10.70
2023-02-25T16:09:10.249Z,10.50
2023-02-25T16:11:49.835Z,9.80
2023-02-25T16:14:31.260Z,9.40
2023-02-25T16:17:03.437Z,9.20
2023-02-25T16:19:36.022Z,8.60
2023-02-25T16:22:17.537Z,8.30
2023-02-25T16:24:48.618Z,8.20
2023-02-25T16:27:48.537Z,8.20
2023-02-25T16:30:21.446Z,8.00
2023-02-25T16:33:10.369Z,8.10
2023-02-25T16:35:50.336Z,7.90
2023-02-25T16:38:20.113Z,7.60
2023-02-25T16:40:47.015Z,7.60
2023-02-25T16:43:18.840Z,7.30
2023-02-25T16:46:01.601Z,7.10
2023-02-25T16:48:38.837Z,6.80
2023-02-25T16:51:20.134Z,6.80
2023-02-25T16:53:49.814Z,7.10
2023-02-25T16:56:27.877Z,7.30
2023-02-25T16:59:11.360Z,7.30
2023-02-25T17:01:44.803Z,7.10
2023-02-25T17:04:21.430Z,7.30
2023-02-25T17:07:19.929Z,7.30
2023-02-25T17:09:54.319Z,7.60
2023-02-25T17:12:38.871Z,7.60
2023-02-25T17:15:16.134Z,7.40
2023-02-25T17:17:44.542Z,7.20
2023-02-25T17:20:19.528Z,7.00
2023-02-25T17:22:46.769Z,7.00
2023-02-25T17:25:15.981Z,6.90
2023-02-25T17:27:47.548Z,6.90
2023-02-25T17:30:42.223Z,7.10
2023-02-25T17:33:29.288Z,6.40
2023-02-25T17:36:18.246Z,6.50
2023-02-25T17:38:46.914Z,6.40
2023-02-25T17:41:21.155Z,6.10
2023-02-25T17:43:48.524Z,6.00
2023-02-25T17:46:20.962Z,6.40
2023-02-25T17:48:53.417Z,5.80
2023-02-25T17:51:28.470Z,5.90
2023-02-25T17:53:58.176Z,4.90
2023-02-25T17:56:30.820Z,5.90
2023-02-25T17:59:06.299Z,5.80
2023-02-25T18:01:56.799Z,5.90
2023-02-25T18:04:32.142Z,5.60
2023-02-25T18:06:59.194Z,5.50
2023-02-25T18:09:27.868Z,5.40
2023-02-25T18:11:56.734Z,5.50
2023-02-25T18:14:43.242Z,5.40
2023-02-25T18:17:28.453Z,7.10
2023-02-25T18:19:57.801Z,5.10
2023-02-25T18:22:27.837Z,5.10
2023-02-25T18:24:57.924Z,5.00
2023-02-25T18:27:30.770Z,5.20
2023-02-25T18:30:14.893Z,5.00
2023-02-25T18:32:41.926Z,5.00
2023-02-25T18:35:09.781Z,5.10
2023-02-25T18:37:37.419Z,5.10
2023-02-25T18:40:04.841Z,5.10
2023-02-25T18:42:33.489Z,5.10
2023-02-25T18:45:00.234Z,5.20
2023-02-25T18:47:29.875Z,5.20
2023-02-25T18:49:56.713Z,5.30
2023-02-25T18:52:25.293Z,5.20
2023-02-25T18:54:52.048Z,5.30
2023-02-25T18:57:29.192Z,5.40
2023-02-25T18:59:56.343Z,5.20
2023-02-25T19:02:25.324Z,5.20
2023-02-25T19:04:53.198Z,5.10
2023-02-25T19:07:20.428Z,5.00
2023-02-25T19:09:47.193Z,4.90
2023-02-25T19:12:15.348Z,4.90
2023-02-25T19:14:43.470Z,5.00
2023-02-25T19:17:16.181Z,5.10
2023-02-25T19:19:46.546Z,5.00
2023-02-25T19:22:15.710Z,4.90
2023-02-25T19:24:45.456Z,4.90
2023-02-25T19:27:27.469Z,5.00
2023-02-25T19:29:57.309Z,5.10
2023-02-25T19:32:25.750Z,5.10
2023-02-25T19:34:52.887Z,5.40
2023-02-25T19:37:21.280Z,5.40
2023-02-25T19:39:48.459Z,7.10
2023-02-25T19:42:15.519Z,5.50
2023-02-25T19:44:43.120Z,5.40
2023-02-25T19:47:10.294Z,5.30
2023-02-25T19:49:37.166Z,5.30
2023-02-25T19:52:04.091Z,5.30
2023-02-25T19:54:32.592Z,5.30
2023-02-25T19:56:59.385Z,5.10
2023-02-25T19:59:28.971Z,6.00
2023-02-25T20:01:55.734Z,5.00
2023-02-25T20:04:22.902Z,5.00
2023-02-25T20:06:50.146Z,4.80
2023-02-25T20:09:17.073Z,4.80
2023-02-25T20:11:46.413Z,5.00
2023-02-25T20:14:15.054Z,4.90
2023-02-25T20:16:42.188Z,4.80
2023-02-25T20:19:09.067Z,4.70
2023-02-25T20:21:36.039Z,4.70
2023-02-25T20:24:03.343Z,4.80
2023-02-25T20:26:32.885Z,4.80
2023-02-25T20:29:00.969Z,4.60
2023-02-25T20:31:28.237Z,4.60
2023-02-25T20:33:58.852Z,4.60
2023-02-25T20:36:50.671Z,4.60
2023-02-25T20:39:23.843Z,4.70
2023-02-25T20:41:51.529Z,4.90
2023-02-25T20:44:18.839Z,4.70
2023-02-25T20:46:46.326Z,4.80
2023-02-25T20:49:18.697Z,4.80
2023-02-25T20:51:47.845Z,4.90
2023-02-25T20:54:16.633Z,4.90
2023-02-25T20:56:43.974Z,5.00
2023-02-25T20:59:12.458Z,5.60
2023-02-25T21:01:40.935Z,4.70
2023-02-25T21:04:08.257Z,4.50
2023-02-25T21:06:35.642Z,4.50
2023-02-25T21:09:04.611Z,4.80
2023-02-25T21:11:32.045Z,4.40
2023-02-25T21:13:58.874Z,4.80
2023-02-25T21:16:25.977Z,5.10
2023-02-25T21:18:53.486Z,4.90
2023-02-25T21:21:21.692Z,4.60
2023-02-25T21:23:51.641Z,4.90
2023-02-25T21:26:18.793Z,5.00
2023-02-25T21:28:46.741Z,4.80
2023-02-25T21:31:15.667Z,4.80
2023-02-25T21:33:43.633Z,4.60
2023-02-25T21:36:11.586Z,4.50
2023-02-25T21:38:39.049Z,4.50
2023-02-25T21:41:12.772Z,4.30
2023-02-25T21:43:41.036Z,4.30
2023-02-25T21:46:13.122Z,4.30
2023-02-25T21:48:41.810Z,4.30
2023-02-25T21:51:15.438Z,4.20
2023-02-25T21:53:42.244Z,4.20
2023-02-25T21:56:11.940Z,4.20
2023-02-25T21:58:38.973Z,4.40
2023-02-25T22:01:24.588Z,5.10
2023-02-25T22:03:51.599Z,4.30
2023-02-25T22:06:18.949Z,4.30
2023-02-25T22:08:47.192Z,4.30
2023-02-25T22:11:28.429Z,4.20
2023-02-25T22:13:55.833Z,4.30
2023-02-25T22:16:23.734Z,4.30
2023-02-25T22:18:51.376Z,3.90
2023-02-25T22:21:36.417Z,4.00
2023-02-25T22:24:04.550Z,4.10
2023-02-25T22:26:34.062Z,4.30
2023-02-25T22:29:08.774Z,4.40
2023-02-25T22:31:36.623Z,4.10
2023-02-25T22:34:04.092Z,3.80
2023-02-25T22:36:30.887Z,3.90
2023-02-25T22:38:57.788Z,4.30
2023-02-25T22:41:27.831Z,4.80
2023-02-25T22:43:55.370Z,5.10
2023-02-25T22:46:24.745Z,4.30
2023-02-25T22:48:52.844Z,4.30
2023-02-25T22:51:22.900Z,4.40
2023-02-25T22:53:50.150Z,4.40
2023-02-25T22:56:17.034Z,4.50
2023-02-25T22:58:44.173Z,4.50
2023-02-25T23:01:13.587Z,4.40
2023-02-25T23:03:40.793Z,4.40
2023-02-25T23:06:08.125Z,4.30
2023-02-25T23:08:35.145Z,3.90
2023-02-25T23:11:13.693Z,4.20
2023-02-25T23:13:46.062Z,3.90
2023-02-25T23:16:18.373Z,4.80
2023-02-25T23:18:50.550Z,4.10
2023-02-25T23:21:19.741Z,4.00
2023-02-25T23:23:48.767Z,4.00
2023-02-25T23:26:19.566Z,3.80
2023-02-25T23:28:47.170Z,3.80
2023-02-25T23:31:25.092Z,4.10
2023-02-25T23:34:00.240Z,3.90
2023-02-25T23:36:28.198Z,4.00
2023-02-25T23:38:56.591Z,3.70
2023-02-25T23:41:23.495Z,4.80
2023-02-25T23:43:54.959Z,3.80
2023-02-25T23:46:24.172Z,4.10
2023-02-25T23:48:58.570Z,4.00
2023-02-25T23:51:26.145Z,4.10
2023-02-25T23:53:57.990Z,3.90
2023-02-25T23:56:28.107Z,4.00
2023-02-25T23:58:55.788Z,4.00
